createdAt,value
2018-12-24T00:01:40.733Z,84.40
2018-12-24T00:04:22.578Z,84.50
2018-12-24T00:07:04.489Z,83.70
2018-12-24T00:09:46.452Z,84.20
2018-12-24T00:12:31.038Z,84.00
2018-12-24T00:15:13.522Z,83.70
2018-12-24T00:17:55.313Z,83.20
2018-12-24T00:20:37.295Z,81.80
2018-12-24T00:23:19.611Z,82.40
2018-12-24T00:26:01.457Z,82.30
2018-12-24T00:28:43.107Z,81.90
2018-12-24T00:31:24.929Z,82.40
2018-12-24T00:34:06.973Z,82.30
2018-12-24T00:36:48.848Z,82.00
2018-12-24T00:39:30.618Z,82.20
2018-12-24T00:42:15.953Z,81.50
2018-12-24T00:45:00.954Z,81.90
2018-12-24T00:48:04.327Z,82.00
2018-12-24T00:50:46.228Z,81.90
2018-12-24T00:53:28.198Z,81.90
2018-12-24T00:56:10.335Z,82.10
2018-12-24T00:58:51.925Z,82.20
2018-12-24T01:01:33.907Z,82.20
2018-12-24T01:04:15.632Z,82.70
2018-12-24T01:06:57.454Z,82.70
2018-12-24T01:09:39.242Z,82.60
2018-12-24T01:12:24.648Z,82.80
2018-12-24T01:15:05.121Z,83.00
2018-12-24T01:17:48.186Z,83.20
2018-12-24T01:20:30.127Z,83.10
2018-12-24T01:23:12.326Z,83.30
2018-12-24T01:25:54.277Z,83.50
2018-12-24T01:28:36.156Z,83.40
2018-12-24T01:31:18.846Z,83.50
2018-12-24T01:34:01.284Z,83.90
2018-12-24T01:36:43.322Z,84.20
2018-12-24T01:39:25.155Z,84.40
2018-12-24T01:42:07.194Z,84.50
2018-12-24T01:44:49.186Z,84.50
2018-12-24T01:47:31.376Z,85.00
2018-12-24T01:50:13.527Z,85.60
2018-12-24T01:52:55.484Z,85.50
2018-12-24T01:55:37.279Z,86.20
2018-12-24T01:58:19.837Z,86.20
2018-12-24T02:01:01.591Z,86.10
2018-12-24T02:03:43.160Z,86.60
2018-12-24T02:06:25.546Z,87.20
2018-12-24T02:09:07.604Z,88.70
2018-12-24T02:11:50.219Z,90.00
2018-12-24T02:14:32.589Z,90.70
2018-12-24T02:17:14.739Z,91.60
2018-12-24T02:19:56.761Z,92.00
2018-12-24T02:22:38.886Z,92.60
2018-12-24T02:25:20.921Z,93.30
2018-12-24T02:28:06.839Z,93.30
2018-12-24T02:30:48.748Z,93.70
2018-12-24T02:33:30.640Z,93.90
2018-12-24T02:36:12.983Z,93.80
2018-12-24T02:38:55.435Z,94.10
2018-12-24T02:41:37.532Z,94.60
2018-12-24T02:44:19.605Z,94.40
2018-12-24T02:47:01.598Z,95.10
2018-12-24T02:49:44.089Z,95.60
2018-12-24T02:52:26.682Z,95.30
2018-12-24T02:55:08.690Z,96.40
2018-12-24T02:57:50.866Z,97.00
2018-12-24T03:00:33.037Z,97.30
2018-12-24T03:03:14.762Z,97.50
2018-12-24T03:05:56.480Z,97.00
2018-12-24T03:08:38.909Z,94.70
2018-12-24T03:11:21.077Z,95.10
2018-12-24T03:14:02.859Z,96.10
2018-12-24T03:16:45.043Z,96.90
2018-12-24T03:19:26.747Z,97.50
2018-12-24T03:22:08.759Z,97.60
2018-12-24T03:24:50.549Z,97.60
2018-12-24T03:27:37.112Z,97.40
2018-12-24T03:30:19.321Z,97.40
2018-12-24T03:33:01.157Z,97.50
2018-12-24T03:35:43.471Z,97.10
2018-12-24T03:38:25.653Z,97.10
2018-12-24T03:41:07.967Z,97.00
2018-12-24T03:46:29.928Z,96.80
2018-12-24T03:49:12.539Z,96.60
2018-12-24T03:51:54.269Z,96.50
2018-12-24T03:54:35.983Z,96.70
2018-12-24T03:57:18.039Z,96.30
2018-12-24T04:00:00.720Z,96.40
2018-12-24T04:02:42.613Z,96.30
2018-12-24T04:05:24.928Z,96.30
2018-12-24T04:08:07.244Z,96.40
2018-12-24T04:10:47.975Z,96.40
2018-12-24T04:13:30.686Z,96.60
2018-12-24T04:16:13.148Z,96.60
2018-12-24T04:18:55.076Z,96.30
2018-12-24T04:21:36.902Z,96.50
2018-12-24T04:24:19.526Z,96.30
2018-12-24T04:27:01.569Z,96.50
2018-12-24T04:29:43.555Z,96.30
2018-12-24T04:32:25.634Z,96.50
2018-12-24T04:35:08.048Z,96.30
2018-12-24T04:37:52.965Z,96.30
2018-12-24T04:40:34.869Z,96.20
2018-12-24T04:43:16.789Z,96.50
2018-12-24T04:45:59.117Z,96.70
2018-12-24T04:48:40.995Z,96.40
2018-12-24T04:51:23.203Z,96.50
2018-12-24T04:54:05.890Z,96.40
2018-12-24T04:56:48.472Z,96.40
2018-12-24T04:59:30.726Z,96.20
2018-12-24T05:02:12.945Z,96.30
2018-12-24T05:04:54.645Z,96.10
2018-12-24T05:07:36.722Z,95.80
2018-12-24T05:10:18.882Z,95.10
2018-12-24T05:13:00.839Z,95.20
2018-12-24T05:18:27.719Z,94.60
2018-12-24T05:21:09.469Z,93.90
2018-12-24T05:23:51.858Z,94.20
2018-12-24T05:26:33.912Z,94.00
2018-12-24T05:29:16.074Z,94.00
2018-12-24T05:31:58.178Z,93.60
2018-12-24T05:34:40.265Z,93.30
2018-12-24T05:37:22.000Z,93.10
2018-12-24T05:40:04.653Z,93.70
2018-12-24T05:42:46.829Z,93.80
2018-12-24T05:48:09.585Z,93.50
2018-12-24T05:50:51.481Z,93.90
2018-12-24T05:53:33.436Z,93.90
2018-12-24T05:56:15.723Z,93.90
2018-12-24T05:58:57.834Z,94.00
2018-12-24T06:01:39.982Z,93.60
2018-12-24T06:04:22.271Z,93.80
2018-12-24T06:07:04.365Z,93.60
2018-12-24T06:09:46.807Z,93.70
2018-12-24T06:12:28.814Z,93.70
2018-12-24T06:17:58.286Z,93.80
2018-12-24T06:20:41.056Z,93.50
2018-12-24T06:23:23.174Z,93.50
2018-12-24T06:26:05.466Z,93.20
2018-12-24T06:28:47.457Z,93.20
2018-12-24T06:31:29.462Z,93.10
2018-12-24T06:34:11.405Z,93.10
2018-12-24T06:36:53.389Z,93.00
2018-12-24T06:39:35.858Z,93.00
2018-12-24T06:42:18.315Z,93.10
2018-12-24T06:45:00.723Z,93.10
2018-12-24T06:47:42.525Z,93.20
2018-12-24T06:50:24.712Z,93.20
2018-12-24T06:53:06.833Z,93.00
2018-12-24T06:55:48.726Z,93.10
2018-12-24T06:58:31.469Z,93.00
2018-12-24T07:01:14.956Z,92.90
2018-12-24T07:03:59.962Z,93.00
2018-12-24T07:06:42.522Z,92.80
2018-12-24T07:09:24.962Z,92.90
2018-12-24T07:12:06.931Z,92.70
2018-12-24T07:14:48.656Z,92.50
2018-12-24T07:17:30.749Z,92.70
2018-12-24T07:20:17.008Z,92.60
2018-12-24T07:22:58.798Z,92.50
2018-12-24T07:25:41.626Z,92.60
2018-12-24T07:28:23.402Z,92.30
2018-12-24T07:31:05.186Z,92.50
2018-12-24T07:33:47.043Z,92.30
2018-12-24T07:36:29.368Z,92.20
2018-12-24T07:39:11.559Z,92.20
2018-12-24T07:41:53.536Z,92.00
2018-12-24T07:44:35.505Z,92.30
2018-12-24T07:47:17.651Z,91.90
2018-12-24T07:49:59.742Z,92.00
2018-12-24T07:52:41.243Z,91.70
2018-12-24T07:55:23.820Z,92.00
2018-12-24T07:58:06.175Z,92.00
2018-12-24T08:00:48.142Z,91.70
2018-12-24T08:03:30.130Z,91.50
2018-12-24T08:06:11.955Z,91.40
2018-12-24T08:08:53.436Z,91.50
2018-12-24T08:11:35.558Z,91.10
2018-12-24T08:14:18.044Z,91.00
2018-12-24T08:16:59.693Z,90.90
2018-12-24T08:19:41.503Z,90.70
2018-12-24T08:22:23.187Z,90.40
2018-12-24T08:25:05.062Z,90.40
2018-12-24T08:27:47.487Z,90.20
2018-12-24T08:30:29.350Z,90.40
2018-12-24T08:33:10.858Z,90.30
2018-12-24T08:35:52.678Z,90.50
2018-12-24T08:38:34.722Z,90.30
2018-12-24T08:41:16.893Z,90.30
2018-12-24T08:43:58.858Z,90.60
2018-12-24T08:46:29.182Z,90.30
2018-12-24T08:49:18.580Z,90.30
2018-12-24T08:52:00.652Z,90.20
2018-12-24T08:54:43.097Z,90.10
2018-12-24T08:57:24.935Z,90.00
2018-12-24T09:01:44.945Z,88.40
2018-12-24T09:04:15.291Z,89.50
2018-12-24T09:06:45.599Z,89.50
2018-12-24T09:09:15.931Z,90.10
2018-12-24T09:11:46.263Z,89.60
2018-12-24T09:14:16.718Z,89.70
2018-12-24T09:16:47.019Z,89.40
2018-12-24T09:19:17.424Z,88.70
2018-12-24T09:21:47.765Z,88.90
2018-12-24T09:24:18.127Z,88.10
2018-12-24T09:26:48.752Z,88.20
2018-12-24T09:29:19.085Z,88.70
2018-12-24T09:31:50.373Z,87.50
2018-12-24T09:34:20.705Z,87.20
2018-12-24T09:36:51.022Z,87.50
2018-12-24T09:39:21.382Z,87.90
2018-12-24T09:41:51.740Z,87.90
2018-12-24T09:44:22.086Z,88.20
2018-12-24T09:46:52.420Z,88.30
2018-12-24T09:49:22.798Z,88.00
2018-12-24T09:51:53.127Z,87.60
2018-12-24T09:54:23.568Z,88.80
2018-12-24T09:56:53.963Z,87.30
2018-12-24T09:59:24.340Z,86.80
2018-12-24T10:01:54.726Z,86.50
2018-12-24T10:04:30.557Z,84.40
2018-12-24T10:07:20.525Z,83.00
2018-12-24T10:09:50.852Z,83.40
2018-12-24T10:12:21.221Z,81.80
2018-12-24T10:14:51.532Z,82.80
2018-12-24T10:17:21.968Z,80.40
2018-12-24T10:19:52.273Z,80.60
2018-12-24T10:22:22.611Z,79.30
2018-12-24T10:24:52.935Z,78.70
2018-12-24T10:27:23.307Z,80.00
2018-12-24T10:29:53.658Z,80.20
2018-12-24T10:32:24.016Z,79.30
2018-12-24T10:34:54.411Z,79.80
2018-12-24T10:37:24.746Z,78.20
2018-12-24T10:39:55.418Z,78.40
2018-12-24T10:42:25.722Z,79.90
2018-12-24T10:44:56.070Z,78.50
2018-12-24T10:47:26.392Z,78.60
2018-12-24T10:49:56.779Z,77.50
2018-12-24T10:52:27.086Z,76.90
2018-12-24T10:54:57.435Z,76.90
2018-12-24T10:57:27.789Z,76.60
2018-12-24T10:59:58.141Z,77.30
2018-12-24T11:02:29.393Z,76.80
2018-12-24T11:04:59.782Z,75.60
2018-12-24T11:07:30.118Z,74.70
2018-12-24T11:10:00.515Z,74.90
2018-12-24T11:12:30.855Z,74.80
2018-12-24T11:15:01.214Z,75.20
2018-12-24T11:17:31.585Z,75.20
2018-12-24T11:20:01.892Z,75.40
2018-12-24T11:22:32.205Z,74.20
2018-12-24T11:25:02.574Z,74.00
2018-12-24T11:27:32.878Z,73.00
2018-12-24T11:30:03.236Z,73.10
2018-12-24T11:32:33.575Z,72.00
2018-12-24T11:35:03.943Z,71.30
2018-12-24T11:37:34.361Z,72.30
2018-12-24T11:40:05.082Z,71.40
2018-12-24T11:42:35.417Z,72.50
2018-12-24T11:45:05.833Z,71.70
2018-12-24T11:47:36.169Z,71.90
2018-12-24T11:50:08.286Z,71.00
2018-12-24T11:52:38.679Z,71.80
2018-12-24T11:55:09.656Z,72.30
2018-12-24T11:57:40.057Z,72.30
2018-12-24T12:00:10.487Z,72.00
2018-12-24T12:02:40.799Z,70.50
2018-12-24T12:05:11.162Z,70.00
2018-12-24T12:07:41.612Z,69.40
2018-12-24T12:10:12.054Z,70.60
2018-12-24T12:12:42.361Z,69.60
2018-12-24T12:15:13.067Z,68.70
2018-12-24T12:17:43.682Z,68.60
2018-12-24T12:20:14.029Z,68.40
2018-12-24T12:22:44.396Z,68.20
2018-12-24T12:25:14.746Z,68.20
2018-12-24T12:27:45.146Z,68.40
2018-12-24T12:30:15.574Z,68.80
2018-12-24T12:32:45.944Z,68.40
2018-12-24T12:35:16.360Z,67.60
2018-12-24T12:37:46.744Z,67.80
2018-12-24T12:40:17.198Z,67.40
2018-12-24T12:42:47.628Z,67.90
2018-12-24T12:45:17.970Z,68.00
2018-12-24T12:47:48.368Z,68.60
2018-12-24T12:50:18.723Z,67.80
2018-12-24T12:52:49.123Z,68.20
2018-12-24T12:55:19.484Z,67.40
2018-12-24T12:57:49.884Z,67.90
2018-12-24T13:00:20.223Z,68.00
2018-12-24T13:02:50.636Z,67.00
2018-12-24T13:05:21.181Z,67.20
2018-12-24T13:07:51.603Z,67.10
2018-12-24T13:10:21.945Z,67.10
2018-12-24T13:12:52.359Z,67.70
2018-12-24T13:15:22.700Z,67.40
2018-12-24T13:17:53.147Z,66.70
2018-12-24T13:20:25.166Z,67.60
2018-12-24T13:22:55.721Z,67.20
2018-12-24T13:25:26.106Z,67.10
2018-12-24T13:27:56.830Z,66.60
2018-12-24T13:30:27.364Z,66.80
2018-12-24T13:32:58.510Z,67.40
2018-12-24T13:35:29.682Z,66.40
2018-12-24T13:38:00.390Z,67.50
2018-12-24T13:40:30.729Z,66.90
2018-12-24T13:43:01.131Z,66.80
2018-12-24T13:45:31.506Z,66.70
2018-12-24T13:48:01.899Z,66.50
2018-12-24T13:50:32.251Z,67.40
2018-12-24T13:53:02.631Z,67.80
2018-12-24T13:55:33.016Z,67.80
2018-12-24T13:58:03.421Z,66.70
2018-12-24T14:00:33.778Z,67.10
2018-12-24T14:03:04.180Z,66.90
2018-12-24T14:05:34.594Z,66.60
2018-12-24T14:08:04.989Z,67.00
2018-12-24T14:10:35.392Z,67.60
2018-12-24T14:13:05.804Z,68.70
2018-12-24T14:15:36.137Z,66.70
2018-12-24T14:18:06.599Z,68.50
2018-12-24T14:20:36.942Z,66.90
2018-12-24T14:23:08.857Z,66.90
2018-12-24T14:25:39.181Z,68.40
2018-12-24T14:28:13.462Z,68.10
2018-12-24T14:30:43.832Z,68.10
2018-12-24T14:33:14.206Z,68.30
2018-12-24T14:35:44.583Z,68.20
2018-12-24T14:38:14.994Z,66.60
2018-12-24T14:40:45.320Z,67.20
2018-12-24T14:43:15.748Z,68.20
2018-12-24T14:45:46.205Z,69.50
2018-12-24T14:48:17.847Z,68.60
2018-12-24T14:50:48.195Z,67.30
2018-12-24T14:53:18.658Z,66.00
2018-12-24T14:55:49.144Z,65.90
2018-12-24T14:58:19.558Z,65.40
2018-12-24T15:00:51.878Z,65.40
2018-12-24T15:03:22.328Z,65.90
2018-12-24T15:05:52.754Z,65.60
2018-12-24T15:08:23.178Z,65.40
2018-12-24T15:10:53.563Z,64.80
2018-12-24T15:13:23.941Z,65.00
2018-12-24T15:15:54.316Z,66.30
2018-12-24T15:18:24.741Z,66.70
2018-12-24T15:20:55.259Z,68.40
2018-12-24T15:23:25.717Z,67.70
2018-12-24T15:25:56.053Z,67.80
2018-12-24T15:28:26.494Z,67.60
2018-12-24T15:30:56.856Z,67.80
2018-12-24T15:33:27.243Z,68.30
2018-12-24T15:35:57.576Z,69.70
2018-12-24T15:38:27.941Z,70.70
2018-12-24T15:41:01.263Z,70.50
2018-12-24T15:43:31.636Z,71.00
2018-12-24T15:46:01.990Z,71.80
2018-12-24T15:48:32.422Z,72.40
2018-12-24T15:51:02.773Z,72.00
2018-12-24T15:53:33.143Z,70.90
2018-12-24T15:56:03.731Z,72.10
2018-12-24T15:58:34.066Z,71.80
2018-12-24T16:01:05.486Z,73.00
2018-12-24T16:03:36.899Z,73.00
2018-12-24T16:06:07.605Z,73.30
2018-12-24T16:08:38.050Z,72.70
2018-12-24T16:11:08.418Z,71.80
2018-12-24T16:13:38.792Z,71.60
2018-12-24T16:16:09.206Z,72.60
2018-12-24T16:18:39.702Z,73.00
2018-12-24T16:21:10.054Z,73.30
2018-12-24T16:23:40.414Z,74.10
2018-12-24T16:26:10.761Z,74.40
2018-12-24T16:28:42.763Z,74.30
2018-12-24T16:31:13.194Z,74.60
2018-12-24T16:33:43.588Z,76.20
2018-12-24T16:36:13.961Z,76.90
2018-12-24T16:38:44.371Z,77.30
2018-12-24T16:41:14.712Z,78.20
2018-12-24T16:43:45.048Z,78.70
2018-12-24T16:46:15.378Z,78.40
2018-12-24T16:48:45.760Z,78.20
2018-12-24T16:51:16.094Z,78.40
2018-12-24T16:53:46.448Z,78.80
2018-12-24T16:56:16.787Z,79.00
2018-12-24T16:58:47.155Z,79.70
2018-12-24T17:01:17.534Z,79.50
2018-12-24T17:03:47.958Z,79.40
2018-12-24T17:06:18.309Z,79.30
2018-12-24T17:08:48.712Z,78.90
2018-12-24T17:11:19.066Z,79.00
2018-12-24T17:13:49.462Z,79.00
2018-12-24T17:16:19.799Z,78.70
2018-12-24T17:18:50.262Z,78.60
2018-12-24T17:21:20.605Z,79.50
2018-12-24T17:23:51.125Z,79.20
2018-12-24T17:26:21.456Z,79.00
2018-12-24T17:28:51.846Z,79.30
2018-12-24T17:31:22.198Z,79.00
2018-12-24T17:33:52.593Z,79.70
2018-12-24T17:36:22.934Z,79.90
2018-12-24T17:38:53.315Z,80.10
2018-12-24T17:41:23.729Z,80.00
2018-12-24T17:43:54.144Z,80.60
2018-12-24T17:46:24.513Z,80.40
2018-12-24T17:48:54.914Z,81.20
2018-12-24T17:51:25.279Z,80.90
2018-12-24T17:53:55.677Z,80.90
2018-12-24T17:56:26.018Z,82.10
2018-12-24T17:58:56.422Z,82.20
2018-12-24T18:01:26.765Z,82.20
2018-12-24T18:03:57.255Z,82.30
2018-12-24T18:06:27.585Z,82.60
2018-12-24T18:08:58.042Z,83.00
2018-12-24T18:11:28.445Z,83.10
2018-12-24T18:13:58.788Z,83.50
2018-12-24T18:16:29.192Z,84.00
2018-12-24T18:18:59.540Z,84.20
2018-12-24T18:21:29.985Z,85.20
2018-12-24T18:24:00.317Z,84.80
2018-12-24T18:26:30.708Z,85.30
2018-12-24T18:29:01.073Z,85.60
2018-12-24T18:31:31.463Z,85.80
2018-12-24T18:34:01.894Z,86.00
2018-12-24T18:36:32.322Z,87.30
2018-12-24T18:39:02.748Z,87.60
2018-12-24T18:41:33.088Z,87.10
2018-12-24T18:44:03.571Z,87.30
2018-12-24T18:46:33.933Z,87.40
2018-12-24T18:49:04.337Z,87.50
2018-12-24T18:51:34.766Z,87.20
2018-12-24T18:54:05.175Z,87.20
2018-12-24T18:56:35.522Z,87.50
2018-12-24T18:59:05.918Z,87.60
2018-12-24T19:01:36.282Z,87.80
2018-12-24T19:04:06.672Z,88.90
2018-12-24T19:06:37.067Z,88.60
2018-12-24T19:09:07.894Z,88.50
2018-12-24T19:11:38.282Z,88.60
2018-12-24T19:14:08.612Z,89.50
2018-12-24T19:16:46.007Z,89.80
2018-12-24T19:19:16.356Z,90.00
2018-12-24T19:21:46.764Z,90.20
2018-12-24T19:24:17.113Z,90.00
2018-12-24T19:26:47.518Z,89.80
2018-12-24T19:29:17.873Z,90.00
2018-12-24T19:31:48.253Z,90.20
2018-12-24T19:34:18.606Z,90.10
2018-12-24T19:36:49.023Z,90.30
2018-12-24T19:39:19.431Z,90.40
2018-12-24T19:41:49.949Z,91.10
2018-12-24T19:44:20.326Z,90.80
2018-12-24T19:46:50.729Z,91.00
2018-12-24T19:49:21.134Z,90.90
2018-12-24T19:51:51.453Z,91.40
2018-12-24T19:54:21.863Z,91.60
2018-12-24T19:56:52.220Z,91.10
2018-12-24T19:59:22.626Z,90.80
2018-12-24T20:01:54.399Z,90.60
2018-12-24T20:04:24.914Z,90.50
2018-12-24T20:06:55.345Z,90.40
2018-12-24T20:09:25.746Z,90.40
2018-12-24T20:11:56.145Z,90.40
2018-12-24T20:14:26.508Z,90.30
2018-12-24T20:16:56.922Z,90.20
2018-12-24T20:19:27.267Z,90.20
2018-12-24T20:21:57.680Z,90.10
2018-12-24T20:24:28.058Z,90.20
2018-12-24T20:26:58.470Z,90.20
2018-12-24T20:29:29.744Z,90.20
2018-12-24T20:32:00.138Z,90.20
2018-12-24T20:34:30.689Z,90.20
2018-12-24T20:37:01.111Z,90.20
2018-12-24T20:39:31.787Z,90.20
2018-12-24T20:42:02.242Z,90.10
2018-12-24T20:44:33.664Z,90.10
2018-12-24T20:47:04.078Z,90.10
2018-12-24T20:49:34.430Z,90.00
2018-12-24T20:52:04.843Z,90.00
2018-12-24T20:54:35.295Z,90.00
2018-12-24T20:57:05.728Z,90.00
2018-12-24T20:59:36.088Z,90.00
2018-12-24T21:02:06.489Z,89.80
2018-12-24T21:04:36.855Z,89.80
2018-12-24T21:07:07.245Z,89.90
2018-12-24T21:09:37.637Z,89.80
2018-12-24T21:12:08.019Z,89.90
2018-12-24T21:14:38.469Z,89.30
2018-12-24T21:17:08.878Z,89.60
2018-12-24T21:19:39.212Z,89.60
2018-12-24T21:22:09.681Z,89.60
2018-12-24T21:24:40.017Z,89.50
2018-12-24T21:27:10.427Z,89.60
2018-12-24T21:29:40.751Z,89.80
2018-12-24T21:32:11.187Z,89.20
2018-12-24T21:34:41.514Z,88.90
2018-12-24T21:37:11.911Z,88.70
2018-12-24T21:39:42.290Z,88.80
2018-12-24T21:42:12.704Z,89.20
2018-12-24T21:44:43.038Z,90.00
2018-12-24T21:47:13.418Z,90.20
2018-12-24T21:49:45.871Z,90.50
2018-12-24T21:52:15.777Z,90.70
2018-12-24T21:54:46.112Z,90.70
2018-12-24T21:57:16.493Z,90.80
2018-12-24T21:59:46.893Z,90.70
2018-12-24T22:02:17.270Z,90.70
2018-12-24T22:04:47.653Z,90.50
2018-12-24T22:07:18.022Z,90.40
2018-12-24T22:09:48.389Z,90.20
2018-12-24T22:12:18.840Z,90.00
2018-12-24T22:14:49.329Z,89.80
2018-12-24T22:17:19.724Z,89.70
2018-12-24T22:19:50.084Z,89.70
2018-12-24T22:22:20.445Z,89.70
2018-12-24T22:24:50.802Z,89.70
2018-12-24T22:27:21.196Z,90.00
2018-12-24T22:29:51.531Z,89.90
2018-12-24T22:32:21.884Z,89.90
2018-12-24T22:34:52.291Z,89.90
2018-12-24T22:37:22.741Z,90.30
2018-12-24T22:39:53.078Z,90.70
2018-12-24T22:42:24.078Z,90.80
2018-12-24T22:44:54.411Z,90.90
2018-12-24T22:47:24.860Z,90.80
2018-12-24T22:49:55.217Z,90.70
2018-12-24T22:52:25.686Z,90.90
2018-12-24T22:54:56.005Z,90.80
2018-12-24T22:57:26.466Z,91.10
2018-12-24T22:59:56.815Z,90.70
2018-12-24T23:02:27.376Z,90.60
2018-12-24T23:04:57.698Z,90.70
2018-12-24T23:07:28.068Z,90.90
2018-12-24T23:09:58.436Z,90.80
2018-12-24T23:12:28.880Z,90.80
2018-12-24T23:14:59.215Z,91.10
2018-12-24T23:17:30.153Z,91.50
2018-12-24T23:20:00.506Z,91.60
2018-12-24T23:22:31.947Z,91.90
2018-12-24T23:25:02.335Z,92.00
2018-12-24T23:27:32.689Z,91.70
2018-12-24T23:30:03.041Z,91.40
2018-12-24T23:32:36.401Z,91.70
2018-12-24T23:35:06.763Z,92.20
2018-12-24T23:37:37.111Z,92.60
2018-12-24T23:40:07.509Z,92.60
2018-12-24T23:42:37.849Z,92.40
2018-12-24T23:45:08.169Z,92.20
2018-12-24T23:47:38.506Z,92.10
2018-12-24T23:50:08.842Z,92.00
2018-12-24T23:52:39.204Z,92.10
2018-12-24T23:55:09.516Z,91.90
2018-12-24T23:57:39.868Z,91.80
